createdAt,value
2016-10-28T00:00:47.564Z,-51
2016-10-28T00:01:47.583Z,-51
2016-10-28T00:02:47.556Z,-52
2016-10-28T00:03:47.546Z,-52
2016-10-28T00:04:47.653Z,-51
2016-10-28T00:05:47.555Z,-51
2016-10-28T00:06:47.533Z,-51
2016-10-28T00:07:48.207Z,-50
2016-10-28T00:08:47.538Z,-48
2016-10-28T00:09:47.565Z,-50
2016-10-28T00:10:47.502Z,-52
2016-10-28T00:11:47.547Z,-53
2016-10-28T00:12:59.637Z,-52
2016-10-28T00:13:58.218Z,-52
2016-10-28T00:15:00.101Z,-52
2016-10-28T00:15:47.514Z,-52
2016-10-28T00:16:47.523Z,-52
2016-10-28T00:18:02.668Z,-49
2016-10-28T00:19:02.776Z,-53
2016-10-28T00:20:03.196Z,-50
2016-10-28T00:21:02.702Z,-51
2016-10-28T00:22:02.207Z,-51
2016-10-28T00:23:02.852Z,-51
2016-10-28T00:24:01.293Z,-51
2016-10-28T00:25:02.973Z,-51
2016-10-28T00:26:02.003Z,-52
2016-10-28T00:27:02.901Z,-53
2016-10-28T00:28:02.414Z,-52
2016-10-28T00:29:02.430Z,-53
2016-10-28T00:30:02.813Z,-53
2016-10-28T00:31:02.964Z,-51
2016-10-28T00:32:00.699Z,-51
2016-10-28T00:33:01.414Z,-53
2016-10-28T00:34:00.990Z,-50
2016-10-28T00:35:01.851Z,-52
2016-10-28T00:36:01.521Z,-53
2016-10-28T00:36:59.938Z,-51
2016-10-28T00:37:47.515Z,-53
2016-10-28T00:38:47.594Z,-51
2016-10-28T00:39:47.553Z,-51
2016-10-28T00:40:47.499Z,-52
2016-10-28T00:41:47.480Z,-50
2016-10-28T00:42:47.512Z,-50
2016-10-28T00:43:47.559Z,-50
2016-10-28T00:44:47.763Z,-47
2016-10-28T00:45:47.550Z,-52
2016-10-28T00:46:47.532Z,-51
2016-10-28T00:47:47.456Z,-53
2016-10-28T00:48:47.479Z,-52
2016-10-28T00:49:47.552Z,-52
2016-10-28T00:50:47.499Z,-53
2016-10-28T00:51:47.495Z,-52
2016-10-28T00:52:47.486Z,-52
2016-10-28T00:53:47.525Z,-53
2016-10-28T00:54:47.533Z,-52
2016-10-28T00:55:47.580Z,-51
2016-10-28T00:56:47.517Z,-51
2016-10-28T00:57:47.523Z,-52
2016-10-28T00:58:47.529Z,-52
2016-10-28T00:59:47.588Z,-51
2016-10-28T01:00:47.622Z,-53
2016-10-28T01:01:47.590Z,-53
2016-10-28T01:02:47.707Z,-49
2016-10-28T01:03:47.574Z,-53
2016-10-28T01:04:47.638Z,-52
2016-10-28T01:05:47.553Z,-53
2016-10-28T01:06:47.535Z,-53
2016-10-28T01:07:47.536Z,-53
2016-10-28T01:08:47.646Z,-52
2016-10-28T01:09:47.586Z,-52
2016-10-28T01:10:47.627Z,-53
2016-10-28T01:11:47.606Z,-52
2016-10-28T01:12:47.619Z,-53
2016-10-28T01:13:47.644Z,-51
2016-10-28T01:14:47.610Z,-51
2016-10-28T01:15:47.640Z,-51
2016-10-28T01:16:47.593Z,-50
2016-10-28T01:17:47.592Z,-50
2016-10-28T01:18:47.626Z,-47
2016-10-28T01:19:47.639Z,-48
2016-10-28T01:20:47.693Z,-49
2016-10-28T01:21:47.684Z,-49
2016-10-28T01:22:47.604Z,-49
2016-10-28T01:23:47.610Z,-52
2016-10-28T01:24:47.614Z,-52
2016-10-28T01:25:47.621Z,-52
2016-10-28T01:26:47.646Z,-53
2016-10-28T01:27:47.587Z,-52
2016-10-28T01:28:47.673Z,-53
2016-10-28T01:29:47.611Z,-51
2016-10-28T01:30:47.638Z,-53
2016-10-28T01:31:47.615Z,-52
2016-10-28T01:32:47.552Z,-51
2016-10-28T01:33:47.631Z,-53
2016-10-28T01:34:47.634Z,-54
2016-10-28T01:35:47.583Z,-54
2016-10-28T01:36:47.580Z,-54
2016-10-28T01:37:47.863Z,-54
2016-10-28T01:38:47.626Z,-52
2016-10-28T01:39:47.795Z,-52
2016-10-28T01:40:47.610Z,-51
2016-10-28T01:41:47.731Z,-52
2016-10-28T01:42:47.566Z,-51
2016-10-28T01:43:47.613Z,-52
2016-10-28T01:44:47.620Z,-49
2016-10-28T01:45:47.642Z,-53
2016-10-28T01:46:47.569Z,-51
2016-10-28T01:47:47.585Z,-50
2016-10-28T01:48:47.629Z,-51
2016-10-28T01:49:47.682Z,-52
2016-10-28T01:50:47.608Z,-52
2016-10-28T01:51:47.598Z,-51
2016-10-28T01:52:47.575Z,-51
2016-10-28T01:53:47.581Z,-51
2016-10-28T01:54:47.667Z,-51
2016-10-28T01:55:47.645Z,-51
2016-10-28T01:56:47.587Z,-53
2016-10-28T01:57:47.658Z,-51
2016-10-28T01:58:47.644Z,-53
2016-10-28T01:59:47.590Z,-51
2016-10-28T02:00:47.632Z,-51
2016-10-28T02:01:47.705Z,-51
2016-10-28T02:02:47.644Z,-51
2016-10-28T02:03:47.638Z,-47
2016-10-28T02:04:47.699Z,-53
2016-10-28T02:05:47.674Z,-50
2016-10-28T02:06:47.641Z,-51
2016-10-28T02:07:47.657Z,-51
2016-10-28T02:08:47.687Z,-50
2016-10-28T02:09:47.632Z,-50
2016-10-28T02:10:47.616Z,-50
2016-10-28T02:11:47.631Z,-49
2016-10-28T02:12:47.654Z,-52
2016-10-28T02:13:47.630Z,-50
2016-10-28T02:14:47.688Z,-49
2016-10-28T02:15:47.667Z,-51
2016-10-28T02:16:47.626Z,-52
2016-10-28T02:17:47.704Z,-52
2016-10-28T02:18:47.640Z,-53
2016-10-28T02:19:47.751Z,-51
2016-10-28T02:20:47.596Z,-50
2016-10-28T02:21:47.707Z,-49
2016-10-28T02:22:47.687Z,-50
2016-10-28T02:23:47.714Z,-50
2016-10-28T02:24:47.628Z,-50
2016-10-28T02:25:47.646Z,-50
2016-10-28T02:26:47.619Z,-50
2016-10-28T02:27:47.888Z,-51
2016-10-28T02:28:47.660Z,-53
2016-10-28T02:29:47.705Z,-52
2016-10-28T02:30:47.687Z,-51
2016-10-28T02:31:47.643Z,-49
2016-10-28T02:32:47.665Z,-51
2016-10-28T02:33:47.629Z,-50
2016-10-28T02:34:47.681Z,-51
2016-10-28T02:35:47.655Z,-51
2016-10-28T02:36:47.660Z,-52
2016-10-28T02:37:47.783Z,-52
2016-10-28T02:38:47.742Z,-49
2016-10-28T02:39:47.726Z,-52
2016-10-28T02:40:47.703Z,-51
2016-10-28T02:41:47.726Z,-52
2016-10-28T02:42:48.411Z,-54
2016-10-28T02:43:47.638Z,-52
2016-10-28T02:44:47.744Z,-54
2016-10-28T02:45:47.792Z,-53
2016-10-28T02:46:47.715Z,-52
2016-10-28T02:47:47.654Z,-54
2016-10-28T02:48:47.769Z,-53
2016-10-28T02:49:47.704Z,-53
2016-10-28T02:50:47.678Z,-53
2016-10-28T02:51:47.658Z,-54
2016-10-28T02:52:47.763Z,-53
2016-10-28T02:53:47.837Z,-52
2016-10-28T02:54:47.680Z,-52
2016-10-28T02:55:47.751Z,-53
2016-10-28T02:56:47.715Z,-51
2016-10-28T02:57:47.753Z,-49
2016-10-28T02:58:47.745Z,-52
2016-10-28T02:59:47.737Z,-50
2016-10-28T03:00:47.743Z,-51
2016-10-28T03:01:47.707Z,-51
2016-10-28T03:02:47.669Z,-50
2016-10-28T03:03:47.662Z,-50
2016-10-28T03:04:47.670Z,-50
2016-10-28T03:05:47.705Z,-50
2016-10-28T03:06:47.654Z,-50
2016-10-28T03:07:47.689Z,-51
2016-10-28T03:08:47.690Z,-52
2016-10-28T03:09:47.685Z,-49
2016-10-28T03:10:47.695Z,-52
2016-10-28T03:11:47.753Z,-52
2016-10-28T03:12:47.687Z,-51
2016-10-28T03:13:47.827Z,-52
2016-10-28T03:14:47.626Z,-52
2016-10-28T03:15:47.927Z,-50
2016-10-28T03:16:47.653Z,-51
2016-10-28T03:17:47.690Z,-50
2016-10-28T03:18:48.424Z,-51
2016-10-28T03:19:47.926Z,-51
2016-10-28T03:20:47.704Z,-50
2016-10-28T03:21:47.779Z,-50
2016-10-28T03:22:47.695Z,-47
2016-10-28T03:23:47.918Z,-50
2016-10-28T03:24:47.680Z,-50
2016-10-28T03:25:47.704Z,-51
2016-10-28T03:26:47.692Z,-50
2016-10-28T03:27:47.730Z,-50
2016-10-28T03:28:47.677Z,-50
2016-10-28T03:29:47.700Z,-50
2016-10-28T03:30:47.725Z,-50
2016-10-28T03:31:47.725Z,-50
2016-10-28T03:32:47.708Z,-47
2016-10-28T03:33:47.738Z,-51
2016-10-28T03:34:47.782Z,-51
2016-10-28T03:35:47.760Z,-50
2016-10-28T03:36:47.753Z,-51
2016-10-28T03:37:47.790Z,-51
2016-10-28T03:38:47.761Z,-51
2016-10-28T03:39:47.966Z,-51
2016-10-28T03:40:47.826Z,-50
2016-10-28T03:41:47.745Z,-48
2016-10-28T03:42:47.791Z,-50
2016-10-28T03:43:48.036Z,-50
2016-10-28T03:44:47.796Z,-50
2016-10-28T03:45:47.828Z,-51
2016-10-28T03:46:47.765Z,-51
2016-10-28T03:47:47.818Z,-51
2016-10-28T03:48:47.771Z,-49
2016-10-28T03:49:48.780Z,-49
2016-10-28T03:50:47.724Z,-50
2016-10-28T03:51:47.760Z,-49
2016-10-28T03:52:47.745Z,-50
2016-10-28T03:53:47.730Z,-50
2016-10-28T03:54:47.740Z,-50
2016-10-28T03:55:47.817Z,-52
2016-10-28T03:56:47.754Z,-50
2016-10-28T03:57:47.724Z,-50
2016-10-28T03:58:47.774Z,-50
2016-10-28T03:59:47.689Z,-50
2016-10-28T04:00:47.797Z,-48
2016-10-28T04:01:47.727Z,-49
2016-10-28T04:02:47.737Z,-49
2016-10-28T04:03:47.711Z,-51
2016-10-28T04:04:47.757Z,-50
2016-10-28T04:05:47.755Z,-51
2016-10-28T04:06:47.748Z,-51
2016-10-28T04:07:47.754Z,-51
2016-10-28T04:08:47.766Z,-49
2016-10-28T04:09:48.048Z,-53
2016-10-28T04:10:48.493Z,-53
2016-10-28T04:11:47.758Z,-49
2016-10-28T04:12:47.802Z,-50
2016-10-28T04:13:47.760Z,-50
2016-10-28T04:14:47.774Z,-50
2016-10-28T04:15:47.786Z,-52
2016-10-28T04:16:47.701Z,-48
2016-10-28T04:17:47.753Z,-47
2016-10-28T04:18:47.772Z,-50
2016-10-28T04:19:47.735Z,-51
2016-10-28T04:20:48.113Z,-52
2016-10-28T04:21:47.780Z,-51
2016-10-28T04:22:47.872Z,-51
2016-10-28T04:23:47.770Z,-51
2016-10-28T04:24:47.715Z,-51
2016-10-28T04:25:47.755Z,-52
2016-10-28T04:26:47.732Z,-50
2016-10-28T04:27:47.768Z,-52
2016-10-28T04:28:47.735Z,-51
2016-10-28T04:29:47.732Z,-52
2016-10-28T04:30:47.799Z,-50
2016-10-28T04:31:47.714Z,-51
2016-10-28T04:32:47.775Z,-50
2016-10-28T04:33:47.704Z,-50
2016-10-28T04:34:47.738Z,-47
2016-10-28T04:35:47.821Z,-51
2016-10-28T04:36:47.767Z,-51
2016-10-28T04:37:47.773Z,-50
2016-10-28T04:38:47.815Z,-51
2016-10-28T04:39:47.770Z,-48
2016-10-28T04:40:47.787Z,-48
2016-10-28T04:41:47.993Z,-52
2016-10-28T04:42:47.791Z,-49
2016-10-28T04:43:47.794Z,-50
2016-10-28T04:44:47.765Z,-50
2016-10-28T04:45:47.870Z,-50
2016-10-28T04:46:47.755Z,-52
2016-10-28T04:47:47.822Z,-53
2016-10-28T04:48:47.890Z,-52
2016-10-28T04:49:47.824Z,-53
2016-10-28T04:50:47.738Z,-52
2016-10-28T04:51:47.767Z,-51
2016-10-28T04:52:47.768Z,-51
2016-10-28T04:53:47.727Z,-51
2016-10-28T04:54:47.780Z,-50
2016-10-28T04:55:47.820Z,-51
2016-10-28T04:56:47.895Z,-49
2016-10-28T04:57:47.851Z,-51
2016-10-28T04:58:48.078Z,-52
2016-10-28T04:59:47.791Z,-50
2016-10-28T05:00:47.777Z,-53
2016-10-28T05:01:47.742Z,-51
2016-10-28T05:02:47.772Z,-51
2016-10-28T05:03:47.766Z,-53
2016-10-28T05:04:47.740Z,-52
2016-10-28T05:05:47.814Z,-51
2016-10-28T05:06:47.755Z,-53
2016-10-28T05:07:48.244Z,-50
2016-10-28T05:08:47.775Z,-50
2016-10-28T05:09:47.844Z,-52
2016-10-28T05:10:47.941Z,-52
2016-10-28T05:11:47.847Z,-50
2016-10-28T05:12:47.839Z,-51
2016-10-28T05:13:47.828Z,-51
2016-10-28T05:14:47.782Z,-50
2016-10-28T05:15:47.827Z,-50
2016-10-28T05:16:47.813Z,-51
2016-10-28T05:17:47.800Z,-51
2016-10-28T05:18:47.838Z,-51
2016-10-28T05:19:47.805Z,-52
2016-10-28T05:20:47.844Z,-50
2016-10-28T05:21:47.813Z,-52
2016-10-28T05:22:47.820Z,-50
2016-10-28T05:23:47.802Z,-51
2016-10-28T05:24:47.930Z,-51
2016-10-28T05:25:50.310Z,-52
2016-10-28T05:26:47.950Z,-50
2016-10-28T05:27:47.807Z,-49
2016-10-28T05:28:47.787Z,-51
2016-10-28T05:29:47.857Z,-50
2016-10-28T05:30:47.918Z,-52
2016-10-28T05:31:48.075Z,-53
2016-10-28T05:32:47.941Z,-52
2016-10-28T05:33:47.857Z,-50
2016-10-28T05:34:47.844Z,-51
2016-10-28T05:35:48.043Z,-50
2016-10-28T05:36:48.140Z,-50
2016-10-28T05:37:48.108Z,-52
2016-10-28T05:38:48.221Z,-50
2016-10-28T05:39:48.024Z,-50
2016-10-28T05:40:47.802Z,-51
2016-10-28T05:41:48.131Z,-50
2016-10-28T05:42:47.826Z,-53
2016-10-28T05:43:47.792Z,-52
2016-10-28T05:44:47.793Z,-50
2016-10-28T05:45:47.790Z,-50
2016-10-28T05:46:47.918Z,-52
2016-10-28T05:47:47.833Z,-52
2016-10-28T05:48:48.094Z,-48
2016-10-28T05:49:47.876Z,-51
2016-10-28T05:50:47.989Z,-48
2016-10-28T05:51:48.001Z,-50
2016-10-28T05:52:47.896Z,-50
2016-10-28T05:53:47.842Z,-50
2016-10-28T05:54:47.841Z,-52
2016-10-28T05:55:47.853Z,-50
2016-10-28T05:56:47.811Z,-50
2016-10-28T05:57:47.840Z,-51
2016-10-28T05:58:47.848Z,-50
2016-10-28T05:59:48.574Z,-52
2016-10-28T06:00:48.344Z,-49
2016-10-28T06:01:47.953Z,-51
2016-10-28T06:02:48.417Z,-51
2016-10-28T06:03:48.410Z,-50
2016-10-28T06:04:47.995Z,-50
2016-10-28T06:05:48.424Z,-53
2016-10-28T06:06:48.397Z,-52
2016-10-28T06:07:47.819Z,-52
2016-10-28T06:08:47.849Z,-54
2016-10-28T06:09:48.453Z,-53
2016-10-28T06:10:47.837Z,-54
2016-10-28T06:11:48.067Z,-53
2016-10-28T06:12:47.924Z,-54
2016-10-28T06:13:47.987Z,-53
2016-10-28T06:14:47.886Z,-52
2016-10-28T06:15:47.898Z,-51
2016-10-28T06:16:47.911Z,-52
2016-10-28T06:17:47.799Z,-53
2016-10-28T06:18:47.831Z,-51
2016-10-28T06:19:48.659Z,-52
2016-10-28T06:20:47.858Z,-53
2016-10-28T06:21:47.815Z,-51
2016-10-28T06:22:47.807Z,-51
2016-10-28T06:23:47.854Z,-51
2016-10-28T06:24:47.897Z,-49
2016-10-28T06:25:47.858Z,-51
2016-10-28T06:26:48.188Z,-52
2016-10-28T06:27:47.869Z,-54
2016-10-28T06:28:48.623Z,-52
2016-10-28T06:29:48.448Z,-52
2016-10-28T06:30:47.869Z,-53
2016-10-28T06:31:49.161Z,-54
2016-10-28T06:32:48.105Z,-54
2016-10-28T06:33:47.922Z,-52
2016-10-28T06:34:47.987Z,-50
2016-10-28T06:35:47.979Z,-49
2016-10-28T06:36:48.373Z,-52
2016-10-28T06:37:48.565Z,-53
2016-10-28T06:38:48.585Z,-53
2016-10-28T06:39:48.025Z,-53
2016-10-28T06:40:48.286Z,-51
2016-10-28T06:41:47.848Z,-51
2016-10-28T06:42:48.005Z,-52
2016-10-28T06:43:47.929Z,-51
2016-10-28T06:44:47.931Z,-51
2016-10-28T06:45:48.222Z,-52
2016-10-28T06:46:47.905Z,-49
2016-10-28T06:47:47.818Z,-51
2016-10-28T06:48:48.537Z,-51
2016-10-28T06:49:48.248Z,-55
2016-10-28T06:50:47.906Z,-51
2016-10-28T06:51:48.301Z,-49
2016-10-28T06:52:48.277Z,-53
2016-10-28T06:53:47.854Z,-52
2016-10-28T06:54:47.849Z,-53
2016-10-28T06:55:47.864Z,-51
2016-10-28T06:56:47.829Z,-53
2016-10-28T06:57:48.791Z,-51
2016-10-28T06:58:47.924Z,-50
2016-10-28T06:59:49.997Z,-50
2016-10-28T07:00:48.092Z,-51
2016-10-28T07:01:49.234Z,-50
2016-10-28T07:02:47.887Z,-52
2016-10-28T07:03:47.871Z,-51
2016-10-28T07:04:47.849Z,-50
2016-10-28T07:05:47.925Z,-49
2016-10-28T07:06:47.962Z,-52
2016-10-28T07:07:47.887Z,-53
2016-10-28T07:08:47.880Z,-53
2016-10-28T07:09:47.879Z,-52
2016-10-28T07:10:48.273Z,-51
2016-10-28T07:11:47.893Z,-53
2016-10-28T07:12:47.988Z,-52
2016-10-28T07:13:47.913Z,-54
2016-10-28T07:14:48.853Z,-52
2016-10-28T07:15:47.919Z,-54
2016-10-28T07:16:47.928Z,-53
2016-10-28T07:17:47.908Z,-52
2016-10-28T07:18:47.930Z,-53
2016-10-28T07:19:47.905Z,-52
2016-10-28T07:20:47.883Z,-53
2016-10-28T07:21:47.890Z,-53
2016-10-28T07:22:47.890Z,-51
2016-10-28T07:23:47.870Z,-51
2016-10-28T07:24:47.908Z,-51
2016-10-28T07:25:48.425Z,-53
2016-10-28T07:26:48.868Z,-52
2016-10-28T07:27:47.896Z,-53
2016-10-28T07:28:47.825Z,-53
2016-10-28T07:29:47.867Z,-52
2016-10-28T07:30:47.918Z,-50
2016-10-28T07:31:47.922Z,-52
2016-10-28T07:32:47.901Z,-53
2016-10-28T07:33:47.853Z,-53
2016-10-28T07:34:47.863Z,-52
2016-10-28T07:35:47.865Z,-52
2016-10-28T07:36:47.917Z,-52
2016-10-28T07:37:47.882Z,-52
2016-10-28T07:38:47.856Z,-52
2016-10-28T07:39:47.970Z,-52
2016-10-28T07:40:47.886Z,-52
2016-10-28T07:41:47.850Z,-52
2016-10-28T07:42:47.902Z,-53
2016-10-28T07:43:47.952Z,-52
2016-10-28T07:44:47.912Z,-50
2016-10-28T07:45:47.995Z,-50
2016-10-28T07:46:47.937Z,-52
2016-10-28T07:47:47.859Z,-50
2016-10-28T07:48:47.879Z,-50
2016-10-28T07:49:47.914Z,-50
2016-10-28T07:50:47.966Z,-50
2016-10-28T07:51:47.914Z,-52
2016-10-28T07:52:47.907Z,-52
2016-10-28T07:53:47.905Z,-51
2016-10-28T07:54:47.874Z,-50
2016-10-28T07:55:47.943Z,-53
2016-10-28T07:56:47.910Z,-52
2016-10-28T07:57:47.975Z,-51
2016-10-28T07:58:48.151Z,-50
2016-10-28T07:59:50.378Z,-52
2016-10-28T08:00:48.604Z,-53
2016-10-28T08:01:49.044Z,-53
2016-10-28T08:02:49.237Z,-52
2016-10-28T08:03:49.686Z,-51
2016-10-28T08:04:48.114Z,-51
2016-10-28T08:05:51.526Z,-54
2016-10-28T08:06:47.993Z,-51
2016-10-28T08:07:48.045Z,-52
2016-10-28T08:08:48.273Z,-52
2016-10-28T08:09:48.279Z,-51
2016-10-28T08:10:48.135Z,-50
2016-10-28T08:11:48.049Z,-50
2016-10-28T08:12:48.374Z,-51
2016-10-28T08:13:48.202Z,-51
2016-10-28T08:14:48.033Z,-51
2016-10-28T08:15:48.057Z,-50
2016-10-28T08:16:48.085Z,-52
2016-10-28T08:17:48.182Z,-55
2016-10-28T08:18:48.187Z,-52
2016-10-28T08:19:49.296Z,-53
2016-10-28T08:20:48.077Z,-51
2016-10-28T08:21:48.160Z,-51
2016-10-28T08:22:48.071Z,-54
2016-10-28T08:23:48.080Z,-52
2016-10-28T08:24:48.045Z,-51
2016-10-28T08:25:48.021Z,-51
2016-10-28T08:26:48.772Z,-52
2016-10-28T08:27:48.109Z,-52
2016-10-28T08:28:50.919Z,-53
2016-10-28T08:29:48.599Z,-54
2016-10-28T08:30:48.245Z,-51
2016-10-28T08:31:51.036Z,-51
2016-10-28T08:32:47.934Z,-50
2016-10-28T08:33:50.134Z,-52
2016-10-28T08:34:48.340Z,-51
2016-10-28T08:35:47.990Z,-51
2016-10-28T08:36:48.429Z,-52
2016-10-28T08:37:48.355Z,-53
2016-10-28T08:38:48.185Z,-53
2016-10-28T08:39:48.029Z,-52
2016-10-28T08:40:50.537Z,-52
2016-10-28T08:41:49.533Z,-51
2016-10-28T08:42:48.138Z,-52
2016-10-28T08:43:48.637Z,-52
2016-10-28T08:44:48.345Z,-52
2016-10-28T08:45:47.997Z,-50
2016-10-28T08:46:48.227Z,-52
2016-10-28T08:47:48.819Z,-52
2016-10-28T08:48:55.037Z,-54
2016-10-28T08:49:47.991Z,-58
2016-10-28T08:50:55.792Z,-57
2016-10-28T08:51:53.709Z,-57
2016-10-28T08:52:52.108Z,-56
2016-10-28T08:53:49.683Z,-56
2016-10-28T08:54:48.939Z,-56
2016-10-28T08:55:48.028Z,-53
2016-10-28T08:56:48.028Z,-52
2016-10-28T08:57:48.154Z,-57
2016-10-28T08:58:48.188Z,-59
2016-10-28T08:59:48.355Z,-52
2016-10-28T09:00:48.104Z,-48
2016-10-28T09:01:48.185Z,-49
2016-10-28T09:02:48.420Z,-51
2016-10-28T09:03:48.040Z,-49
2016-10-28T09:04:48.077Z,-52
2016-10-28T09:05:48.454Z,-51
2016-10-28T09:06:48.160Z,-52
2016-10-28T09:07:48.044Z,-54
2016-10-28T09:08:48.217Z,-55
2016-10-28T09:09:48.475Z,-55
2016-10-28T09:10:48.212Z,-57
2016-10-28T09:11:49.197Z,-56
2016-10-28T09:12:48.599Z,-54
2016-10-28T09:13:48.109Z,-53
2016-10-28T09:14:47.940Z,-51
2016-10-28T09:15:48.051Z,-51
2016-10-28T09:16:48.086Z,-50
2016-10-28T09:17:48.041Z,-51
2016-10-28T09:18:48.136Z,-51
2016-10-28T09:19:48.000Z,-51
2016-10-28T09:20:48.059Z,-56
2016-10-28T09:21:48.007Z,-56
2016-10-28T09:22:48.009Z,-55
2016-10-28T09:23:49.358Z,-54
2016-10-28T09:24:47.997Z,-54
2016-10-28T09:25:48.436Z,-54
2016-10-28T09:26:48.385Z,-55
2016-10-28T09:27:48.064Z,-54
2016-10-28T09:28:50.053Z,-51
2016-10-28T09:29:47.993Z,-53
2016-10-28T09:30:48.064Z,-51
2016-10-28T09:31:48.080Z,-49
2016-10-28T09:32:47.998Z,-52
2016-10-28T09:33:48.033Z,-51
2016-10-28T09:34:48.099Z,-51
2016-10-28T09:35:48.025Z,-53
2016-10-28T09:36:48.472Z,-54
2016-10-28T09:37:47.982Z,-49
2016-10-28T09:38:48.302Z,-52
2016-10-28T09:39:47.977Z,-48
2016-10-28T09:40:48.046Z,-56
2016-10-28T09:41:48.023Z,-50
2016-10-28T09:42:48.862Z,-50
2016-10-28T09:43:48.215Z,-51
2016-10-28T09:44:48.110Z,-50
2016-10-28T09:45:48.221Z,-50
2016-10-28T09:46:48.862Z,-51
2016-10-28T09:47:48.067Z,-52
2016-10-28T09:48:48.008Z,-51
2016-10-28T09:49:48.177Z,-55
2016-10-28T09:50:48.034Z,-51
2016-10-28T09:51:48.126Z,-52
2016-10-28T09:52:48.257Z,-58
2016-10-28T09:53:47.994Z,-50
2016-10-28T09:54:48.061Z,-50
2016-10-28T09:55:48.074Z,-53
2016-10-28T09:56:48.231Z,-58
2016-10-28T09:57:48.165Z,-57
2016-10-28T09:58:48.112Z,-50
2016-10-28T09:59:47.992Z,-50
2016-10-28T10:00:48.043Z,-59
2016-10-28T10:01:47.987Z,-51
2016-10-28T10:02:48.081Z,-51
2016-10-28T10:03:48.920Z,-56
2016-10-28T10:04:47.955Z,-57
2016-10-28T10:05:47.969Z,-58
2016-10-28T10:06:48.216Z,-57
2016-10-28T10:07:48.033Z,-50
2016-10-28T10:08:48.068Z,-50
2016-10-28T10:09:48.420Z,-52
2016-10-28T10:10:48.026Z,-54
2016-10-28T10:11:48.056Z,-53
2016-10-28T10:12:49.077Z,-51
2016-10-28T10:13:48.118Z,-53
2016-10-28T10:14:49.020Z,-54
2016-10-28T10:15:48.064Z,-54
2016-10-28T10:16:48.070Z,-53
2016-10-28T10:17:48.142Z,-53
2016-10-28T10:18:48.068Z,-53
2016-10-28T10:19:48.064Z,-52
2016-10-28T10:20:48.032Z,-54
2016-10-28T10:21:48.772Z,-55
2016-10-28T10:22:48.403Z,-50
2016-10-28T10:23:48.077Z,-48
2016-10-28T10:24:48.648Z,-52
2016-10-28T10:25:48.288Z,-53
2016-10-28T10:26:48.102Z,-52
2016-10-28T10:27:48.535Z,-59
2016-10-28T10:28:48.393Z,-60
2016-10-28T10:29:48.196Z,-61
2016-10-28T10:30:48.215Z,-58
2016-10-28T10:31:48.122Z,-60
2016-10-28T10:32:48.100Z,-59
2016-10-28T10:33:48.104Z,-61
2016-10-28T10:34:48.304Z,-58
2016-10-28T10:35:48.371Z,-61
2016-10-28T10:36:48.909Z,-60
2016-10-28T10:37:48.087Z,-58
2016-10-28T10:38:48.734Z,-58
2016-10-28T10:39:48.100Z,-57
2016-10-28T10:40:48.305Z,-60
2016-10-28T10:41:48.092Z,-55
2016-10-28T10:42:48.183Z,-56
2016-10-28T10:43:48.297Z,-58
2016-10-28T10:44:48.067Z,-59
2016-10-28T10:45:48.073Z,-55
2016-10-28T10:46:48.441Z,-55
2016-10-28T10:47:48.182Z,-53
2016-10-28T10:48:48.092Z,-53
2016-10-28T10:49:48.686Z,-54
2016-10-28T10:50:48.769Z,-55
2016-10-28T10:51:48.311Z,-54
2016-10-28T10:52:48.451Z,-57
2016-10-28T10:53:48.428Z,-57
2016-10-28T10:54:48.377Z,-57
2016-10-28T10:55:48.253Z,-59
2016-10-28T10:56:48.504Z,-58
2016-10-28T10:57:48.350Z,-59
2016-10-28T10:58:48.286Z,-58
2016-10-28T10:59:48.316Z,-59
2016-10-28T11:00:51.181Z,-59
2016-10-28T11:01:48.841Z,-59
2016-10-28T11:02:48.162Z,-60
2016-10-28T11:03:48.290Z,-58
2016-10-28T11:04:48.081Z,-57
2016-10-28T11:05:48.070Z,-53
2016-10-28T11:06:48.160Z,-52
2016-10-28T11:07:48.076Z,-58
2016-10-28T11:08:48.503Z,-58
2016-10-28T11:10:59.422Z,-57
2016-10-28T11:12:21.693Z,-59
2016-10-28T11:13:39.527Z,-58
2016-10-28T11:15:00.187Z,-50
2016-10-28T11:16:25.028Z,-50
2016-10-28T11:17:45.795Z,-52
2016-10-28T11:19:03.261Z,-51
2016-10-28T11:20:23.207Z,-53
2016-10-28T11:21:45.195Z,-52
2016-10-28T11:23:09.587Z,-53
2016-10-28T11:24:30.573Z,-51
2016-10-28T11:25:53.721Z,-50
2016-10-28T11:27:15.962Z,-57
2016-10-28T11:30:08.947Z,-53
2016-10-28T11:31:30.652Z,-54
2016-10-28T11:32:50.630Z,-49
2016-10-28T11:34:12.199Z,-51
2016-10-28T11:35:32.209Z,-52
2016-10-28T11:36:38.385Z,-50
2016-10-28T11:37:58.586Z,-49
2016-10-28T11:39:19.136Z,-49
2016-10-28T11:40:40.467Z,-51
2016-10-28T11:42:02.563Z,-51
2016-10-28T11:43:31.513Z,-50
2016-10-28T11:44:52.698Z,-55
2016-10-28T11:46:14.974Z,-56
2016-10-28T11:47:37.920Z,-53
2016-10-28T11:49:02.459Z,-55
2016-10-28T11:50:22.385Z,-54
2016-10-28T11:51:43.991Z,-57
2016-10-28T11:53:08.973Z,-57
2016-10-28T11:54:32.273Z,-58
2016-10-28T11:55:53.482Z,-57
2016-10-28T11:57:17.268Z,-57
2016-10-28T11:58:42.516Z,-56
2016-10-28T12:00:05.915Z,-57
2016-10-28T12:01:30.371Z,-55
2016-10-28T12:02:53.455Z,-56
2016-10-28T12:04:21.102Z,-57
2016-10-28T12:05:45.053Z,-58
2016-10-28T12:07:08.007Z,-57
2016-10-28T12:08:28.031Z,-55
2016-10-28T12:09:51.432Z,-58
2016-10-28T12:11:16.026Z,-56
2016-10-28T12:12:39.734Z,-58
2016-10-28T12:14:00.671Z,-55
2016-10-28T12:15:27.297Z,-53
2016-10-28T12:16:49.830Z,-55
2016-10-28T12:18:11.640Z,-53
2016-10-28T12:19:38.656Z,-56
2016-10-28T12:20:59.501Z,-54
2016-10-28T12:22:19.286Z,-54
2016-10-28T12:23:39.456Z,-56
2016-10-28T12:25:04.282Z,-55
2016-10-28T12:26:23.725Z,-53
2016-10-28T12:26:33.849Z,-58
2016-10-28T12:28:47.145Z,-60
2016-10-28T12:30:06.629Z,-59
2016-10-28T12:31:25.971Z,-59
2016-10-28T12:32:47.354Z,-61
2016-10-28T12:34:11.372Z,-61
2016-10-28T12:35:33.994Z,-61
2016-10-28T12:36:56.611Z,-60
2016-10-28T12:38:18.790Z,-61
2016-10-28T12:39:42.628Z,-58
2016-10-28T12:41:05.865Z,-58
2016-10-28T12:42:29.190Z,-59
2016-10-28T12:43:53.894Z,-57
2016-10-28T12:45:19.438Z,-61
2016-10-28T12:46:43.657Z,-53
2016-10-28T12:48:05.535Z,-59
2016-10-28T12:49:29.749Z,-57
2016-10-28T12:50:52.666Z,-56
2016-10-28T12:52:15.926Z,-55
2016-10-28T12:53:35.346Z,-57
2016-10-28T12:54:59.141Z,-51
2016-10-28T12:56:21.877Z,-53
2016-10-28T12:57:44.113Z,-52
2016-10-28T12:59:06.246Z,-54
2016-10-28T13:00:28.092Z,-51
2016-10-28T13:01:50.555Z,-54
2016-10-28T13:03:11.887Z,-52
2016-10-28T13:04:36.949Z,-58
2016-10-28T13:05:59.589Z,-57
2016-10-28T13:07:22.523Z,-58
2016-10-28T13:08:53.041Z,-58
2016-10-28T13:10:18.543Z,-57
2016-10-28T13:11:40.751Z,-57
2016-10-28T13:13:02.791Z,-56
2016-10-28T13:14:28.332Z,-59
2016-10-28T13:15:52.542Z,-57
2016-10-28T13:17:14.210Z,-57
2016-10-28T13:18:35.980Z,-56
2016-10-28T13:19:57.167Z,-56
2016-10-28T13:21:16.054Z,-51
2016-10-28T13:22:37.570Z,-58
2016-10-28T13:24:01.054Z,-60
2016-10-28T13:25:37.800Z,-54
2016-10-28T13:27:01.853Z,-53
2016-10-28T13:28:22.450Z,-55
2016-10-28T13:29:47.794Z,-52
2016-10-28T13:31:12.006Z,-53
2016-10-28T13:32:39.868Z,-58
2016-10-28T13:34:03.207Z,-58
2016-10-28T13:35:19.124Z,-53
2016-10-28T13:35:36.673Z,-51
2016-10-28T13:36:32.875Z,-53
2016-10-28T13:37:29.409Z,-53
2016-10-28T13:38:29.361Z,-53
2016-10-28T13:39:29.544Z,-55
2016-10-28T13:40:29.854Z,-54
2016-10-28T13:41:29.242Z,-54
2016-10-28T13:42:29.711Z,-52
2016-10-28T13:43:29.470Z,-53
2016-10-28T13:44:29.396Z,-53
2016-10-28T13:45:29.447Z,-55
2016-10-28T13:46:29.208Z,-52
2016-10-28T13:47:29.514Z,-53
2016-10-28T13:48:29.337Z,-50
2016-10-28T13:49:29.306Z,-53
2016-10-28T13:50:29.351Z,-54
2016-10-28T13:51:29.665Z,-57
2016-10-28T13:52:29.710Z,-54
2016-10-28T13:53:29.374Z,-52
2016-10-28T13:54:29.292Z,-55
2016-10-28T13:55:29.376Z,-54
2016-10-28T13:56:29.318Z,-54
2016-10-28T13:57:29.278Z,-53
2016-10-28T13:58:29.262Z,-50
2016-10-28T13:59:29.320Z,-53
2016-10-28T14:00:29.486Z,-53
2016-10-28T14:01:29.507Z,-52
2016-10-28T14:02:30.586Z,-54
2016-10-28T14:03:29.557Z,-50
2016-10-28T14:04:30.174Z,-54
2016-10-28T14:05:29.265Z,-53
2016-10-28T14:06:29.272Z,-53
2016-10-28T14:07:29.294Z,-53
2016-10-28T14:08:29.429Z,-52
2016-10-28T14:09:29.839Z,-52
2016-10-28T14:10:29.580Z,-53
2016-10-28T14:11:29.294Z,-54
2016-10-28T14:12:29.924Z,-53
2016-10-28T14:13:30.276Z,-54
2016-10-28T14:14:29.952Z,-55
2016-10-28T14:15:29.342Z,-56
2016-10-28T14:16:29.310Z,-53
2016-10-28T14:17:29.903Z,-53
2016-10-28T14:18:29.256Z,-53
2016-10-28T14:19:29.963Z,-54
2016-10-28T14:20:29.398Z,-56
2016-10-28T14:21:29.330Z,-54
2016-10-28T14:22:29.369Z,-54
2016-10-28T14:23:29.394Z,-55
2016-10-28T14:24:29.443Z,-52
2016-10-28T14:25:29.378Z,-53
2016-10-28T14:26:29.292Z,-54
2016-10-28T14:27:29.271Z,-54